Time;durP1;ratioP1;P1;durP2;ratioP2;P2;SDS_P1;SDS_P2;PMS_P1;PMS_P2;Temp;Humidity;BMP_temperature;BMP_pressure;BME280_temperature;BME280_humidity;BME280_pressure;Samples;Min_cycle;Max_cycle;Signal;HPM_P1;HPM_P2
2022/12/07 00:01:32;;;;;;;4.60;4.20;;;15.20;58.20;16.20;100877.00;;;;5030877;28;20657;-42
2022/12/07 00:04:05;;;;;;;5.20;4.70;;;15.20;58.20;16.20;100878.00;;;;5048565;28;20228;-43
2022/12/07 00:06:36;;;;;;;4.73;4.33;;;15.20;58.20;16.20;100881.00;;;;5048731;28;20155;-42
2022/12/07 00:09:06;;;;;;;4.80;4.30;;;15.20;58.20;16.20;100876.00;;;;5049119;28;20696;-43
2022/12/07 00:11:32;;;;;;;5.10;4.20;;;15.10;58.20;16.20;100876.00;;;;5048730;28;20177;-43
2022/12/07 00:14:00;;;;;;;4.77;4.37;;;15.10;58.10;16.20;100877.00;;;;5048792;28;20266;-43
2022/12/07 00:16:29;;;;;;;4.83;4.43;;;15.10;58.20;16.20;100877.00;;;;5048828;28;20228;-44
2022/12/07 00:18:55;;;;;;;4.90;4.50;;;15.10;58.20;16.20;100869.00;;;;5048495;28;20305;-42
2022/12/07 00:21:28;;;;;;;5.47;4.70;;;15.10;58.20;16.20;100865.00;;;;5030645;28;20205;-43
2022/12/07 00:23:55;;;;;;;5.33;4.60;;;15.10;58.20;16.10;100863.00;;;;5048890;28;20170;-43
2022/12/07 00:26:32;;;;;;;4.50;4.10;;;15.10;58.20;16.10;100865.00;;;;5048899;28;20171;-43
2022/12/07 00:29:00;;;;;;;4.87;4.47;;;15.10;58.20;16.10;100865.00;;;;5052278;28;20276;-43
2022/12/07 00:31:29;;;;;;;4.80;4.40;;;15.00;58.20;16.10;100864.00;;;;5034800;28;20257;-42
2022/12/07 00:33:55;;;;;;;4.50;4.10;;;15.00;58.20;16.10;100870.00;;;;5052186;28;20182;-43
2022/12/07 00:36:23;;;;;;;5.13;4.53;;;15.00;58.20;16.10;100859.00;;;;5018607;28;20584;-43
2022/12/07 00:38:49;;;;;;;4.70;4.30;;;15.00;58.20;16.10;100870.00;;;;5056028;28;20292;-42
2022/12/07 00:41:17;;;;;;;4.93;4.43;;;15.00;58.20;16.00;100866.00;;;;5055561;28;20206;-43
2022/12/07 00:43:43;;;;;;;4.97;4.47;;;15.00;58.20;16.00;100862.00;;;;5053627;28;20247;-43
2022/12/07 00:46:09;;;;;;;5.10;4.57;;;14.90;58.20;16.00;100860.00;;;;5052863;28;20171;-44
2022/12/07 00:48:35;;;;;;;5.33;4.83;;;14.90;58.20;16.00;100862.00;;;;5034555;28;20901;-43
2022/12/07 00:51:01;;;;;;;5.10;4.70;;;14.90;58.20;16.00;100862.00;;;;5034505;28;20274;-44
2022/12/07 00:53:27;;;;;;;5.83;5.27;;;14.90;58.20;16.00;100832.00;;;;5052337;28;20185;-42
2022/12/07 00:55:52;;;;;;;6.07;5.47;;;14.90;58.00;16.00;100864.00;;;;5034595;28;20635;-42
2022/12/07 00:58:19;;;;;;;5.07;4.67;;;14.90;58.10;16.00;100869.00;;;;5052595;28;20206;-43
2022/12/07 01:00:45;;;;;;;5.43;4.93;;;14.90;58.20;16.00;100860.00;;;;5034513;28;20545;-42
2022/12/07 01:03:12;;;;;;;5.33;4.90;;;14.90;58.10;15.90;100857.00;;;;5052274;28;20170;-42
2022/12/07 01:05:37;;;;;;;5.23;4.83;;;14.80;58.10;15.90;100851.00;;;;5034818;28;20819;-43
2022/12/07 01:08:03;;;;;;;5.77;5.20;;;14.80;58.10;15.90;100856.00;;;;5052411;28;20297;-43
2022/12/07 01:10:31;;;;;;;5.30;4.80;;;14.80;58.10;15.90;100852.00;;;;5034250;28;20177;-42
2022/12/07 01:12:57;;;;;;;5.03;4.60;;;14.80;58.10;15.90;100852.00;;;;5052190;28;20179;-42
2022/12/07 01:15:23;;;;;;;5.33;4.83;;;14.80;58.20;15.90;100847.00;;;;5051964;28;20179;-43
2022/12/07 01:17:49;;;;;;;5.93;5.33;;;14.80;58.20;15.90;100855.00;;;;5051503;28;20206;-43
2022/12/07 01:20:15;;;;;;;5.57;5.07;;;14.70;58.00;15.90;100856.00;;;;5051957;28;20167;-43
2022/12/07 01:22:41;;;;;;;5.53;5.03;;;14.80;58.10;15.90;100862.00;;;;5051637;28;20206;-42
2022/12/07 01:25:07;;;;;;;5.50;5.10;;;14.70;58.10;15.90;100852.00;;;;5051669;28;20177;-43
2022/12/07 01:27:34;;;;;;;5.97;5.37;;;14.70;58.10;15.80;100859.00;;;;5033583;28;20273;-41
2022/12/07 01:30:00;;;;;;;5.67;5.07;;;14.70;58.20;15.80;100846.00;;;;5017670;28;20253;-43
2022/12/07 01:32:25;;;;;;;5.77;5.13;;;14.70;58.10;15.80;100848.00;;;;5051255;28;20261;-42
2022/12/07 01:34:51;;;;;;;5.30;4.90;;;14.70;58.10;15.80;100851.00;;;;5051663;28;20233;-43
2022/12/07 01:37:17;;;;;;;6.33;4.87;;;14.70;58.10;15.80;100844.00;;;;5051163;28;20198;-43
2022/12/07 01:39:43;;;;;;;5.90;5.30;;;14.60;58.10;15.80;100862.00;;;;5051265;28;20206;-41
2022/12/07 01:42:11;;;;;;;5.60;5.10;;;14.60;58.00;15.80;100855.00;;;;5052591;28;20178;-42
2022/12/07 01:45:17;;;;;;;5.40;4.90;;;14.60;58.10;15.80;100857.00;;;;5033841;28;20170;-43
2022/12/07 01:47:51;;;;;;;5.93;5.17;;;14.60;58.10;15.70;100855.00;;;;5051536;28;20218;-41
2022/12/07 01:50:16;;;;;;;5.37;4.87;;;14.60;58.10;15.70;100827.00;;;;5034228;28;20177;-43
2022/12/07 01:52:42;;;;;;;5.70;5.20;;;14.60;58.40;15.70;100850.00;;;;5033807;28;20174;-43
2022/12/07 01:55:10;;;;;;;6.30;5.80;;;14.60;58.30;15.70;100838.00;;;;5034274;28;20605;-42
2022/12/07 01:57:43;;;;;;;5.53;5.10;;;14.60;58.20;15.70;100838.00;;;;5034156;28;20201;-43
2022/12/07 02:00:10;;;;;;;6.27;5.50;;;14.60;58.30;15.70;100829.00;;;;5051626;28;20162;-44
2022/12/07 02:03:05;;;;;;;5.43;5.03;;;14.60;58.30;15.70;100835.00;;;;5051091;28;20174;-42
2022/12/07 02:05:31;;;;;;;5.50;4.87;;;14.50;58.30;15.70;100835.00;;;;5027481;28;20190;-42
2022/12/07 02:07:57;;;;;;;5.70;5.20;;;14.60;58.30;15.70;100833.00;;;;5033129;28;20205;-42
2022/12/07 02:10:26;;;;;;;5.40;4.90;;;14.50;58.20;15.70;100831.00;;;;5016961;28;20596;-43
2022/12/07 02:12:59;;;;;;;5.77;5.27;;;14.50;58.20;15.70;100832.00;;;;5033050;28;20175;-43
2022/12/07 02:15:52;;;;;;;6.57;5.37;;;14.50;58.20;15.70;100832.00;;;;5033807;28;20163;-43
2022/12/07 02:18:55;;;;;;;6.27;5.67;;;14.50;58.20;15.60;100834.00;;;;5036075;28;20216;-43
2022/12/07 02:22:02;;;;;;;5.80;5.20;;;14.50;58.30;15.60;100835.00;;;;5050275;28;20522;-43
2022/12/07 02:25:17;;;;;;;5.80;5.20;;;14.50;58.30;15.60;100830.00;;;;5050946;28;20165;-44
2022/12/07 02:28:05;;;;;;;6.20;5.60;;;14.50;58.30;15.60;100824.00;;;;5008257;28;20297;-45
2022/12/07 02:30:33;;;;;;;6.20;5.53;;;14.50;58.30;15.60;100831.00;;;;5035692;28;20158;-43
2022/12/07 02:33:16;;;;;;;5.77;5.23;;;14.40;58.30;15.60;100833.00;;;;5033342;28;20174;-43
2022/12/07 02:35:55;;;;;;;5.90;5.33;;;14.40;58.40;15.50;100830.00;;;;5033226;28;20178;-42
2022/12/07 02:38:27;;;;;;;5.50;5.00;;;14.40;58.30;15.50;100834.00;;;;5034522;28;20253;-42
2022/12/07 02:40:54;;;;;;;5.40;4.90;;;14.40;58.40;15.50;100815.00;;;;5032505;28;20166;-43
2022/12/07 02:43:25;;;;;;;5.97;5.47;;;14.50;58.40;15.50;100838.00;;;;5032779;28;20174;-44
2022/12/07 02:45:52;;;;;;;5.83;5.20;;;14.40;58.50;15.50;100844.00;;;;5016200;28;20165;-44
2022/12/07 02:48:18;;;;;;;5.83;5.23;;;14.40;58.50;15.50;100833.00;;;;5016275;28;20236;-43
2022/12/07 02:50:52;;;;;;;5.70;5.20;;;14.40;58.50;15.50;100820.00;;;;5031682;28;20174;-42
2022/12/07 02:53:33;;;;;;;5.47;4.97;;;14.30;58.30;15.50;100822.00;;;;5050117;28;20175;-44
2022/12/07 02:56:24;;;;;;;5.47;4.97;;;14.30;58.40;15.50;100830.00;;;;5050392;28;20176;-43
2022/12/07 02:59:17;;;;;;;6.77;5.50;;;14.30;59.00;15.50;100824.00;;;;5025004;28;20229;-42
2022/12/07 03:02:21;;;;;;;6.40;5.80;;;14.30;59.10;15.50;100818.00;;;;5049825;28;20151;-43
2022/12/07 03:05:29;;;;;;;6.20;5.60;;;14.30;59.10;15.50;100815.00;;;;5041532;28;20642;-43
2022/12/07 03:08:06;;;;;;;5.57;5.10;;;14.30;59.10;15.50;100819.00;;;;5037792;28;20194;-43
2022/12/07 03:10:52;;;;;;;5.73;5.23;;;14.20;59.30;15.50;100819.00;;;;5033337;28;20166;-42
2022/12/07 03:13:50;;;;;;;6.13;5.53;;;14.20;59.20;15.50;100828.00;;;;5016369;28;20684;-44
2022/12/07 03:16:21;;;;;;;5.90;5.40;;;14.30;59.20;15.20;100832.00;;;;5036722;28;20689;-42
2022/12/07 03:18:58;;;;;;;5.80;5.30;;;14.20;58.90;15.40;100834.00;;;;5037611;28;20226;-42
2022/12/07 03:21:27;;;;;;;5.93;5.43;;;14.30;59.10;15.40;100826.00;;;;5020422;28;20253;-44
2022/12/07 03:23:56;;;;;;;5.63;5.17;;;14.20;58.90;15.40;100833.00;;;;5032958;28;20256;-40
2022/12/07 03:26:24;;;;;;;6.10;5.60;;;14.20;58.90;15.40;100835.00;;;;5032208;28;20176;-42
2022/12/07 03:28:53;;;;;;;6.00;5.40;;;14.20;58.90;14.90;100816.00;;;;5032154;28;20221;-43
2022/12/07 03:31:31;;;;;;;6.13;5.60;;;14.20;58.90;15.40;100815.00;;;;5031960;28;20185;-42
2022/12/07 03:34:34;;;;;;;5.83;5.30;;;14.20;58.90;15.40;100831.00;;;;5017248;28;20208;-44
2022/12/07 03:37:07;;;;;;;5.57;5.07;;;14.20;58.90;15.40;100834.00;;;;5032151;28;20197;-44
2022/12/07 03:39:47;;;;;;;6.47;5.70;;;14.20;59.00;15.40;100828.00;;;;5016041;28;20251;-41
2022/12/07 03:42:13;;;;;;;5.70;5.20;;;14.20;59.00;15.40;100820.00;;;;5031760;28;20189;-44
2022/12/07 03:44:38;;;;;;;5.97;5.47;;;14.10;59.00;15.40;100817.00;;;;5031883;28;20661;-42
2022/12/07 03:47:13;;;;;;;5.57;5.07;;;14.20;59.00;15.30;100811.00;;;;5031975;28;20217;-43
2022/12/07 03:49:50;;;;;;;5.73;5.23;;;14.20;58.90;15.30;100818.00;;;;5031960;28;20199;-42
2022/12/07 03:52:26;;;;;;;5.87;5.37;;;14.10;58.90;15.30;100822.00;;;;5015438;28;20162;-42
2022/12/07 03:55:05;;;;;;;5.50;5.00;;;14.10;58.90;15.30;100804.00;;;;5049269;28;20279;-44
2022/12/07 03:57:31;;;;;;;5.63;5.20;;;14.10;58.90;15.30;100819.00;;;;5032906;28;20258;-43
2022/12/07 03:59:57;;;;;;;6.17;5.57;;;14.10;59.00;15.30;100823.00;;;;5031418;28;20662;-43
2022/12/07 04:02:24;;;;;;;5.50;5.00;;;14.10;59.00;15.30;100818.00;;;;5030973;28;20170;-43
2022/12/07 04:04:49;;;;;;;5.43;5.00;;;14.10;59.10;15.30;100822.00;;;;5031655;28;20173;-42
2022/12/07 04:07:15;;;;;;;5.73;5.20;;;14.10;59.10;15.30;100816.00;;;;5031322;28;20269;-43
2022/12/07 04:09:41;;;;;;;6.60;5.00;;;14.10;59.50;15.30;100833.00;;;;5049257;28;20167;-43
2022/12/07 04:12:06;;;;;;;5.87;4.63;;;14.20;59.40;15.30;100818.00;;;;5031144;28;20218;-43
2022/12/07 04:14:32;;;;;;;5.20;4.70;;;14.10;59.10;15.30;100817.00;;;;5049119;28;20174;-43
2022/12/07 04:16:58;;;;;;;5.80;4.57;;;14.10;59.80;15.30;100810.00;;;;5048847;28;20214;-44
2022/12/07 04:19:32;;;;;;;6.20;4.23;;;14.20;59.40;15.30;100820.00;;;;5049058;28;20422;-44
2022/12/07 04:21:59;;;;;;;5.90;4.03;;;14.30;59.40;15.30;100826.00;;;;5049386;28;20197;-44
2022/12/07 04:24:25;;;;;;;5.80;4.07;;;14.40;59.40;15.40;100807.00;;;;5049124;28;20171;-42
2022/12/07 04:26:51;;;;;;;5.17;3.77;;;14.50;59.30;15.40;100821.00;;;;5049119;28;20511;-42
2022/12/07 04:29:17;;;;;;;3.97;3.57;;;14.60;59.20;15.50;100828.00;;;;5048487;28;20171;-42
2022/12/07 04:31:43;;;;;;;6.57;3.60;;;14.80;59.00;15.60;100834.00;;;;5048707;28;20174;-41
2022/12/07 04:34:09;;;;;;;4.43;3.90;;;14.90;58.90;15.60;100823.00;;;;5048720;28;20180;-44
2022/12/07 04:36:35;;;;;;;5.13;3.30;;;15.10;58.80;15.70;100815.00;;;;5048870;28;20194;-43
2022/12/07 04:39:01;;;;;;;3.73;3.30;;;15.30;58.60;15.80;100751.00;;;;5048227;28;20575;-44
2022/12/07 04:41:26;;;;;;;7.40;3.47;;;15.40;58.40;15.90;100816.00;;;;5048993;28;20291;-44
2022/12/07 04:44:03;;;;;;;3.40;3.10;;;15.50;58.30;16.00;100812.00;;;;5049343;28;20167;-42
2022/12/07 04:46:30;;;;;;;3.20;2.90;;;15.60;58.20;16.10;100814.00;;;;5049832;28;20182;-42
2022/12/07 04:48:56;;;;;;;4.83;3.30;;;15.60;58.10;16.20;100812.00;;;;5049948;28;20285;-43
2022/12/07 04:51:27;;;;;;;3.63;3.00;;;15.70;58.20;16.20;100813.00;;;;5049546;28;20305;-44
2022/12/07 04:53:53;;;;;;;3.37;3.07;;;15.70;58.20;16.20;100808.00;;;;5050014;28;20151;-42
2022/12/07 04:56:19;;;;;;;3.03;2.80;;;15.80;58.20;16.30;100810.00;;;;5049882;28;20537;-43
2022/12/07 04:58:45;;;;;;;3.43;3.00;;;15.80;58.10;16.40;100807.00;;;;5031573;28;20206;-43
2022/12/07 05:01:12;;;;;;;3.10;2.80;;;15.90;58.10;16.40;100799.00;;;;5031614;28;20189;-42
2022/12/07 05:03:38;;;;;;;2.97;2.70;;;15.90;58.00;16.40;100804.00;;;;5049563;28;20178;-41
2022/12/07 05:06:05;;;;;;;4.00;2.63;;;15.90;58.00;16.50;100806.00;;;;5049387;28;20171;-42
2022/12/07 05:08:31;;;;;;;3.97;2.80;;;15.90;58.00;16.50;100803.00;;;;5048907;28;20202;-42
2022/12/07 05:10:57;;;;;;;3.37;2.80;;;15.90;58.10;16.50;100804.00;;;;5031399;28;20194;-42
2022/12/07 05:13:22;;;;;;;4.53;3.17;;;15.90;58.30;16.50;100808.00;;;;5039736;28;20573;-45
2022/12/07 05:15:48;;;;;;;3.20;2.90;;;15.90;58.30;16.50;100819.00;;;;5072217;28;20183;-43
2022/12/07 05:18:14;;;;;;;3.57;3.27;;;15.90;58.30;16.50;100813.00;;;;5072491;28;20582;-43
2022/12/07 05:20:41;;;;;;;5.27;3.20;;;15.90;58.30;16.60;100806.00;;;;5072549;28;20173;-43
2022/12/07 05:23:06;;;;;;;4.47;3.10;;;15.90;58.30;16.60;100802.00;;;;5071993;28;20170;-43
2022/12/07 05:25:32;;;;;;;4.30;3.30;;;16.00;58.40;16.60;100802.00;;;;5072525;28;20166;-43
2022/12/07 05:27:58;;;;;;;4.20;3.20;;;15.90;58.30;16.60;100815.00;;;;5071654;28;20262;-43
2022/12/07 05:30:24;;;;;;;5.50;3.20;;;15.90;58.30;16.60;100811.00;;;;5072488;28;20222;-41
2022/12/07 05:32:50;;;;;;;4.40;3.27;;;15.90;58.30;16.70;100819.00;;;;5072317;28;20175;-43
2022/12/07 05:35:17;;;;;;;4.67;3.37;;;15.90;58.30;16.70;100789.00;;;;5072912;28;20526;-42
2022/12/07 05:37:43;;;;;;;3.50;3.20;;;15.90;58.30;16.70;100813.00;;;;5038449;28;20193;-42
2022/12/07 05:40:09;;;;;;;3.40;3.10;;;15.90;58.30;16.70;100809.00;;;;5054292;28;20205;-43
2022/12/07 05:42:35;;;;;;;5.87;3.30;;;15.90;58.30;16.70;100806.00;;;;5071111;28;20341;-43
2022/12/07 05:45:01;;;;;;;5.93;3.13;;;16.00;58.30;16.70;100816.00;;;;5072620;28;20150;-44
2022/12/07 05:47:26;;;;;;;3.23;2.93;;;15.90;58.30;16.70;100807.00;;;;5073135;28;20190;-42
2022/12/07 05:49:52;;;;;;;4.40;3.00;;;15.90;58.30;16.70;100814.00;;;;5072384;28;20634;-41
2022/12/07 05:52:18;;;;;;;7.37;3.33;;;15.90;58.30;16.70;100807.00;;;;5071035;28;20166;-44
2022/12/07 05:54:43;;;;;;;4.00;3.10;;;16.00;58.30;16.70;100801.00;;;;5053293;28;20178;-42
2022/12/07 05:57:09;;;;;;;4.87;3.20;;;15.90;58.20;16.70;100811.00;;;;5071350;28;20604;-43
2022/12/07 05:59:35;;;;;;;8.83;3.20;;;15.90;58.20;16.70;100808.00;;;;5072038;28;20197;-42
2022/12/07 06:02:06;;;;;;;4.63;3.10;;;15.90;58.30;16.70;100811.00;;;;5053949;28;20159;-43
2022/12/07 06:04:35;;;;;;;4.60;2.70;;;16.00;58.40;16.70;100800.00;;;;5053989;28;20192;-43
2022/12/07 06:07:01;;;;;;;4.37;2.63;;;16.00;58.30;16.80;100807.00;;;;5054303;28;20269;-42
2022/12/07 06:09:27;;;;;;;3.90;2.80;;;16.10;58.40;16.80;100807.00;;;;5053996;28;20670;-43
2022/12/07 06:14:38;;;;;;;7.90;3.10;;;16.10;58.50;16.80;100813.00;;;;5077386;28;20192;-44
2022/12/07 06:17:04;;;;;;;4.70;2.33;;;16.10;58.50;16.80;100816.00;;;;5055942;28;20189;-43
2022/12/07 06:19:30;;;;;;;4.53;2.70;;;16.10;58.50;16.80;100814.00;;;;5072385;28;20681;-42
2022/12/07 06:21:56;;;;;;;4.77;2.60;;;16.00;59.10;16.80;100739.00;;;;5053735;28;20527;-41
2022/12/07 06:24:22;;;;;;;3.33;2.30;;;16.10;58.50;16.80;100816.00;;;;5053438;28;20253;-42
2022/12/07 06:26:48;;;;;;;2.83;2.60;;;16.00;58.60;16.80;100817.00;;;;5053847;28;20316;-43
2022/12/07 06:29:14;;;;;;;4.60;2.63;;;16.00;58.70;16.80;100819.00;;;;5071814;28;20633;-43
2022/12/07 06:31:39;;;;;;;2.70;2.50;;;16.10;58.70;16.80;100807.00;;;;5071305;28;20544;-42
2022/12/07 06:34:09;;;;;;;3.07;2.50;;;16.10;58.60;16.80;100805.00;;;;5036384;28;20173;-42
2022/12/07 06:36:35;;;;;;;2.60;2.40;;;16.10;58.60;16.80;100808.00;;;;5037760;28;20280;-43
2022/12/07 06:39:01;;;;;;;2.83;2.40;;;16.10;58.60;16.80;100819.00;;;;5071499;28;20324;-43
2022/12/07 06:41:26;;;;;;;4.83;2.40;;;16.10;58.60;16.80;100810.00;;;;5070501;28;20165;-43
2022/12/07 06:43:52;;;;;;;3.33;2.37;;;16.00;58.70;16.80;100817.00;;;;5052975;28;20219;-43
2022/12/07 06:46:18;;;;;;;2.40;2.20;;;16.00;58.70;16.80;100812.00;;;;5053178;28;20161;-43
2022/12/07 06:48:44;;;;;;;2.80;2.03;;;16.00;58.70;16.80;100814.00;;;;5057880;28;20294;-43
2022/12/07 06:51:09;;;;;;;2.40;2.20;;;16.00;58.70;16.80;100819.00;;;;5050800;28;20174;-42
2022/12/07 06:53:36;;;;;;;3.10;2.40;;;16.00;58.80;16.80;100819.00;;;;5032312;28;20693;-44
2022/12/07 06:56:02;;;;;;;3.97;2.30;;;16.00;58.80;16.80;100821.00;;;;5033379;28;20390;-44
2022/12/07 06:58:27;;;;;;;3.40;2.50;;;15.90;58.80;16.80;100817.00;;;;5051327;28;20237;-43
2022/12/07 07:00:53;;;;;;;2.30;2.10;;;16.00;58.90;16.80;100833.00;;;;5051505;28;20742;-43
2022/12/07 07:03:19;;;;;;;2.40;2.20;;;16.00;58.90;16.80;100818.00;;;;5049995;28;20173;-43
2022/12/07 07:05:45;;;;;;;2.97;2.30;;;16.00;59.10;16.80;100837.00;;;;5033227;28;20554;-43
2022/12/07 07:08:11;;;;;;;3.23;2.20;;;16.00;59.10;16.80;100820.00;;;;5050956;28;20908;-42
2022/12/07 07:10:37;;;;;;;5.40;2.33;;;16.00;59.10;16.80;100820.00;;;;5033374;28;20170;-44
2022/12/07 07:13:03;;;;;;;2.50;2.20;;;15.90;59.10;16.80;100827.00;;;;5050033;28;20600;-42
2022/12/07 07:15:29;;;;;;;2.97;2.60;;;16.00;59.30;16.80;100828.00;;;;5051074;28;20171;-42
2022/12/07 07:17:55;;;;;;;3.07;2.23;;;16.00;59.40;16.80;100830.00;;;;5033207;28;20784;-43
2022/12/07 07:20:20;;;;;;;3.50;2.10;;;16.10;59.30;16.90;100824.00;;;;5050647;28;20176;-43
2022/12/07 07:22:46;;;;;;;4.67;2.30;;;16.20;59.20;16.90;100823.00;;;;5050383;28;20624;-42
2022/12/07 07:25:12;;;;;;;2.53;2.30;;;16.30;59.00;17.00;100821.00;;;;5050689;28;20178;-43
2022/12/07 07:27:38;;;;;;;2.67;2.20;;;16.50;58.90;17.00;100818.00;;;;5050652;28;20191;-45
2022/12/07 07:30:04;;;;;;;4.40;2.30;;;16.60;58.80;17.10;100819.00;;;;5032850;28;20543;-43
2022/12/07 07:32:30;;;;;;;3.37;2.20;;;16.80;58.40;17.20;100823.00;;;;5032417;28;20195;-44
2022/12/07 07:34:56;;;;;;;2.37;2.17;;;16.90;58.30;17.30;100821.00;;;;5050058;28;20161;-43
2022/12/07 07:37:22;;;;;;;3.37;2.27;;;17.10;58.10;17.40;100824.00;;;;5050318;28;20192;-42
2022/12/07 07:39:48;;;;;;;4.00;2.17;;;17.20;58.00;17.50;100819.00;;;;5033171;28;20204;-44
2022/12/07 07:42:14;;;;;;;3.63;2.50;;;17.30;58.00;17.60;100828.00;;;;5032934;28;20169;-43
2022/12/07 07:44:40;;;;;;;4.63;2.30;;;17.40;58.80;17.70;100819.00;;;;5032361;28;20772;-42
2022/12/07 07:47:06;;;;;;;10.53;2.57;;;17.50;59.90;17.80;100827.00;;;;5048429;28;20176;-43
2022/12/07 07:49:31;;;;;;;9.83;2.80;;;17.60;60.70;17.80;100831.00;;;;5015640;28;20181;-43
2022/12/07 07:51:57;;;;;;;10.13;2.73;;;17.60;61.00;17.90;100830.00;;;;5064044;28;20215;-43
2022/12/07 07:54:23;;;;;;;7.40;2.70;;;17.70;61.10;18.00;100833.00;;;;5051410;28;20173;-43
2022/12/07 07:56:48;;;;;;;14.43;3.00;;;17.70;60.80;18.00;100834.00;;;;5051710;28;20186;-43
2022/12/07 07:59:15;;;;;;;13.37;3.10;;;17.70;60.40;18.10;100828.00;;;;5066040;28;20188;-44
2022/12/07 08:01:40;;;;;;;11.77;3.13;;;17.70;60.50;18.10;100845.00;;;;4990556;28;20185;-43
2022/12/07 08:04:06;;;;;;;12.77;2.77;;;17.80;60.70;18.20;100836.00;;;;5067185;28;20177;-44
2022/12/07 08:06:32;;;;;;;14.57;3.10;;;17.80;60.40;18.20;100834.00;;;;5051344;28;20175;-43
2022/12/07 08:08:58;;;;;;;9.60;3.10;;;17.80;60.50;18.20;100835.00;;;;5048489;28;20687;-43
2022/12/07 08:11:24;;;;;;;9.60;3.00;;;17.90;60.50;18.30;100839.00;;;;5048416;28;20205;-43
2022/12/07 08:13:50;;;;;;;11.67;3.20;;;17.90;60.10;18.30;100845.00;;;;5046943;28;20202;-42
2022/12/07 08:16:15;;;;;;;9.07;2.90;;;18.00;59.80;18.40;100845.00;;;;5048972;28;20168;-42
2022/12/07 08:18:41;;;;;;;7.83;2.97;;;18.10;59.40;18.40;100859.00;;;;5047646;28;20626;-42
2022/12/07 08:21:12;;;;;;;8.77;3.20;;;18.10;59.40;18.50;100848.00;;;;5048916;28;20177;-44
2022/12/07 08:23:38;;;;;;;5.93;2.80;;;18.10;59.60;18.50;100853.00;;;;5030595;28;20204;-42
2022/12/07 08:26:05;;;;;;;8.20;3.00;;;18.00;59.50;18.50;100853.00;;;;5048881;28;20244;-44
2022/12/07 08:28:31;;;;;;;7.20;3.23;;;18.10;59.50;18.60;100859.00;;;;5046288;28;20761;-43
2022/12/07 08:31:01;;;;;;;8.97;2.93;;;18.20;59.50;18.60;100865.00;;;;5030946;28;20186;-43
2022/12/07 08:33:27;;;;;;;19.33;3.40;;;18.10;59.80;18.60;100812.00;;;;5037272;28;20188;-45
2022/12/07 08:35:52;;;;;;;14.47;3.60;;;18.10;59.70;18.60;100863.00;;;;5068869;28;20173;-43
2022/12/07 08:38:18;;;;;;;10.53;3.30;;;18.10;59.70;18.60;100866.00;;;;5068600;28;20208;-43
2022/12/07 08:40:44;;;;;;;7.10;2.80;;;18.20;59.50;18.70;100867.00;;;;5064869;28;20185;-43
2022/12/07 08:43:09;;;;;;;16.20;3.47;;;18.20;59.40;18.70;100865.00;;;;5047567;28;20359;-43
2022/12/07 08:45:35;;;;;;;9.90;3.30;;;18.20;59.20;18.70;100859.00;;;;5048115;28;20784;-43
2022/12/07 08:48:07;;;;;;;9.87;3.63;;;18.30;59.10;18.70;100868.00;;;;5049764;28;20562;-45
2022/12/07 08:50:33;;;;;;;11.73;3.23;;;18.20;59.00;18.70;100862.00;;;;5035804;28;20206;-43
2022/12/07 08:52:59;;;;;;;12.20;3.00;;;18.20;58.90;18.70;100867.00;;;;5051959;28;20659;-42
2022/12/07 08:55:25;;;;;;;9.90;2.77;;;18.20;59.10;18.70;100857.00;;;;5043079;28;20636;-43
2022/12/07 08:57:51;;;;;;;10.53;3.27;;;18.20;59.10;18.70;100846.00;;;;5057562;28;20221;-43
2022/12/07 09:00:17;;;;;;;6.63;2.70;;;18.20;59.30;18.70;100861.00;;;;4984228;28;20206;-44
2022/12/07 09:02:44;;;;;;;6.73;2.80;;;18.10;59.40;18.70;100864.00;;;;5057686;28;20264;-42
2022/12/07 09:05:10;;;;;;;3.77;2.40;;;18.10;59.40;18.70;100859.00;;;;5055947;28;20162;-42
2022/12/07 09:07:36;;;;;;;5.70;2.57;;;18.10;59.40;18.70;100850.00;;;;5057020;28;20265;-44
2022/12/07 09:10:02;;;;;;;7.70;2.60;;;18.00;59.40;18.60;100850.00;;;;5039868;28;20174;-43
2022/12/07 09:12:28;;;;;;;8.43;2.50;;;18.00;59.50;18.60;100856.00;;;;5073919;28;20205;-43
2022/12/07 09:14:53;;;;;;;5.27;2.47;;;17.90;59.50;18.60;100845.00;;;;5073765;28;20207;-44
2022/12/07 09:17:19;;;;;;;6.93;2.60;;;17.90;59.60;18.60;100848.00;;;;5073729;28;20198;-43
2022/12/07 09:19:45;;;;;;;4.27;2.43;;;17.90;59.60;18.60;100846.00;;;;5072367;28;20247;-44
2022/12/07 09:22:10;;;;;;;4.87;2.40;;;17.80;59.70;18.50;100852.00;;;;5073087;28;20176;-43
2022/12/07 09:24:36;;;;;;;3.53;2.30;;;17.80;59.70;18.50;100855.00;;;;5072885;28;20647;-42
2022/12/07 09:27:02;;;;;;;3.13;2.20;;;17.80;59.80;18.50;100856.00;;;;5072833;28;20170;-45
2022/12/07 09:29:28;;;;;;;4.60;2.50;;;17.70;59.80;18.50;100858.00;;;;5072943;28;20595;-43
2022/12/07 09:31:53;;;;;;;4.40;2.30;;;17.70;59.80;18.40;100852.00;;;;5072238;28;20173;-44
2022/12/07 09:34:20;;;;;;;3.60;2.50;;;17.70;59.80;18.40;100856.00;;;;5072270;28;20253;-44
2022/12/07 09:36:45;;;;;;;2.90;2.20;;;17.60;59.80;18.40;100853.00;;;;5072487;28;20180;-43
2022/12/07 09:39:11;;;;;;;5.77;2.63;;;17.60;59.80;18.40;100854.00;;;;5072111;28;20250;-45
2022/12/07 09:41:41;;;;;;;4.83;2.40;;;17.60;60.70;18.30;100857.00;;;;5072316;28;20540;-45
2022/12/07 09:44:14;;;;;;;3.60;2.50;;;17.60;59.90;18.30;100860.00;;;;5072438;28;20204;-44
2022/12/07 09:46:41;;;;;;;3.30;2.27;;;17.50;59.90;18.30;100859.00;;;;5037937;28;20335;-44
2022/12/07 09:49:22;;;;;;;3.93;2.30;;;17.50;60.00;18.20;100856.00;;;;5054115;28;20335;-44
2022/12/07 09:51:48;;;;;;;3.80;2.30;;;17.40;59.90;18.20;100854.00;;;;5054769;28;20150;-44
2022/12/07 09:54:15;;;;;;;2.87;2.40;;;17.40;60.00;18.20;100859.00;;;;5072185;28;20199;-43
2022/12/07 09:56:41;;;;;;;4.80;2.50;;;17.40;60.10;18.20;100853.00;;;;5054473;28;20190;-44
2022/12/07 09:59:13;;;;;;;2.87;2.20;;;17.30;60.10;18.10;100851.00;;;;5053847;28;20203;-44
2022/12/07 10:01:39;;;;;;;2.80;2.17;;;17.30;60.20;18.10;100851.00;;;;5054936;28;20236;-44
2022/12/07 10:04:18;;;;;;;4.00;2.40;;;17.30;61.00;18.10;100860.00;;;;5071867;28;20170;-44
2022/12/07 10:06:45;;;;;;;2.43;2.17;;;17.30;60.30;18.10;100839.00;;;;5054313;28;20153;-42
2022/12/07 10:09:16;;;;;;;3.03;2.30;;;17.20;60.20;18.00;100833.00;;;;5072180;28;20217;-43
2022/12/07 10:12:02;;;;;;;3.63;2.47;;;17.20;60.20;18.00;100836.00;;;;5053750;28;20251;-43
2022/12/07 10:14:29;;;;;;;2.70;2.50;;;17.10;60.20;18.00;100845.00;;;;5072077;28;20253;-43
2022/12/07 10:16:55;;;;;;;3.50;2.43;;;17.10;60.20;17.90;100854.00;;;;5053820;28;20186;-43
2022/12/07 10:19:30;;;;;;;2.43;2.07;;;17.10;60.30;17.90;100843.00;;;;5053849;28;20205;-43
2022/12/07 10:22:13;;;;;;;2.43;2.13;;;17.00;60.20;17.90;100844.00;;;;5071679;28;20185;-44
2022/12/07 10:24:42;;;;;;;2.93;2.10;;;17.00;60.30;17.90;100832.00;;;;5071737;28;20571;-44
2022/12/07 10:27:30;;;;;;;2.40;2.20;;;17.00;60.40;17.90;100832.00;;;;5071472;28;20158;-43
2022/12/07 10:29:57;;;;;;;3.00;2.00;;;16.90;60.40;17.80;100826.00;;;;5071424;28;20210;-45
2022/12/07 10:32:34;;;;;;;2.27;2.07;;;16.90;60.40;17.80;100827.00;;;;5053963;28;20187;-43
2022/12/07 10:35:27;;;;;;;2.40;2.20;;;16.90;60.40;17.80;100818.00;;;;5071694;28;20188;-42
2022/12/07 10:37:53;;;;;;;2.63;2.20;;;16.90;60.50;17.70;100816.00;;;;5071128;28;20213;-42
2022/12/07 10:40:31;;;;;;;2.23;2.03;;;16.80;60.50;17.70;100821.00;;;;5071101;28;20193;-47
2022/12/07 10:43:11;;;;;;;2.37;2.17;;;16.80;60.50;17.70;100825.00;;;;5071231;28;20155;-43
2022/12/07 10:46:00;;;;;;;2.40;2.20;;;16.80;60.60;17.70;100818.00;;;;5071302;28;20165;-43
2022/12/07 10:48:35;;;;;;;2.40;2.20;;;16.80;60.60;17.60;100814.00;;;;5053291;28;20195;-44
2022/12/07 10:51:15;;;;;;;2.50;2.30;;;16.70;60.50;17.60;100820.00;;;;5053626;28;20175;-44
2022/12/07 10:54:21;;;;;;;2.83;2.13;;;16.70;60.50;17.60;100797.00;;;;5054366;28;20260;-43
2022/12/07 10:56:58;;;;;;;2.30;2.10;;;16.70;60.50;17.60;100798.00;;;;5052562;28;20187;-43
2022/12/07 10:59:49;;;;;;;3.03;2.10;;;16.60;60.40;17.50;100792.00;;;;5053085;28;20190;-43
2022/12/07 11:02:44;;;;;;;2.60;2.40;;;16.70;60.50;17.50;100796.00;;;;5053075;28;20161;-43